Middletown, Vermont
Current Conditions -  °F | °C
As of 2:54 PM on Thursday 30 Oct 2014 (Local Time) from KVSF Reporting Station
Broken Clouds Broken Clouds  
Wind Chill: 52°   Ceiling: 6000
Heat Index: 52°   Visibility: 10mi
Dew Point: 34°   Wind: 8mph
Humidity: 50%   Direction: 290°WNW
Pressure: 29.93"   Gusts: NA
Location:  43.2811°N, 72.6352°W
Report Text: KVSF 301854Z AUTO 29007KT 10SM FEW044 BKN060 11/01 A2993 RMK AO2 SLP138 T01110011
Loading
Personal Weather Stations






























Interactive Weather Map
Tropical Storm Tracking
New forecast layout! Learn more

10-Day Weather Forecast

Advertisements
Track Severe Weather on mobile